createdAt,value
2023-04-02T00:00:35.840Z,7.62
2023-04-02T00:03:02.366Z,7.52
2023-04-02T00:05:37.866Z,7.41
2023-04-02T00:08:18.330Z,7.30
2023-04-02T00:10:48.855Z,7.15
2023-04-02T00:13:22.021Z,7.24
2023-04-02T00:15:50.410Z,7.19
2023-04-02T00:18:18.990Z,7.25
2023-04-02T00:20:55.716Z,7.51
2023-04-02T00:23:22.813Z,7.68
2023-04-02T00:25:49.347Z,7.76
2023-04-02T00:28:19.567Z,7.81
2023-04-02T00:31:06.310Z,7.81
2023-04-02T00:33:33.223Z,7.91
2023-04-02T00:35:59.757Z,8.05
2023-04-02T00:38:35.637Z,8.02
2023-04-02T00:41:04.350Z,7.91
2023-04-02T00:43:36.117Z,7.90
2023-04-02T00:46:05.044Z,7.83
2023-04-02T00:48:40.337Z,7.72
2023-04-02T00:51:18.010Z,7.49
2023-04-02T00:53:46.906Z,7.31
2023-04-02T00:56:36.707Z,7.09
2023-04-02T00:59:04.090Z,7.26
2023-04-02T01:01:36.429Z,7.42
2023-04-02T01:04:05.097Z,7.46
2023-04-02T01:06:38.809Z,7.42
2023-04-02T01:09:36.364Z,7.41
2023-04-02T01:12:14.955Z,7.38
2023-04-02T01:15:14.558Z,7.24
2023-04-02T01:17:53.470Z,7.07
2023-04-02T01:20:56.790Z,7.20
2023-04-02T01:23:48.338Z,7.36
2023-04-02T01:26:46.861Z,7.45
2023-04-02T01:29:16.236Z,7.65
2023-04-02T01:31:44.725Z,7.82
2023-04-02T01:34:14.671Z,7.89
2023-04-02T01:37:00.181Z,7.86
2023-04-02T01:39:41.700Z,7.47
2023-04-02T01:42:11.163Z,6.94
2023-04-02T01:44:44.398Z,6.73
2023-04-02T01:47:13.706Z,6.78
2023-04-02T01:50:03.808Z,6.73
2023-04-02T01:52:37.080Z,7.00
2023-04-02T01:55:03.922Z,7.12
2023-04-02T01:57:31.015Z,7.48
2023-04-02T01:59:59.794Z,7.72
2023-04-02T02:02:26.462Z,7.68
2023-04-02T02:04:53.238Z,7.74
2023-04-02T02:07:20.702Z,7.84
2023-04-02T02:09:48.230Z,7.95
2023-04-02T02:12:15.744Z,7.77
2023-04-02T02:14:47.755Z,7.74
2023-04-02T02:17:16.896Z,7.51
2023-04-02T02:19:52.166Z,7.29
2023-04-02T02:22:38.266Z,7.39
2023-04-02T02:25:07.604Z,7.54
2023-04-02T02:27:48.259Z,7.69
2023-04-02T02:30:22.064Z,7.78
2023-04-02T02:33:05.473Z,7.28
2023-04-02T02:35:41.217Z,7.33
2023-04-02T02:38:26.434Z,7.38
2023-04-02T02:40:56.735Z,7.41
2023-04-02T02:43:23.240Z,7.51
2023-04-02T02:45:50.905Z,7.37
2023-04-02T02:48:21.548Z,7.43
2023-04-02T02:50:48.202Z,7.27
2023-04-02T02:53:24.804Z,7.50
2023-04-02T02:55:54.504Z,7.51
2023-04-02T02:58:25.273Z,7.37
2023-04-02T03:00:51.995Z,7.64
2023-04-02T03:03:24.698Z,7.74
2023-04-02T03:06:03.295Z,7.76
2023-04-02T03:08:40.580Z,7.96
2023-04-02T03:11:12.069Z,8.13
2023-04-02T03:13:39.796Z,8.30
2023-04-02T03:16:22.105Z,8.33
2023-04-02T03:19:20.700Z,8.45
2023-04-02T03:21:52.482Z,7.76
2023-04-02T03:24:27.153Z,7.68
2023-04-02T03:27:03.609Z,7.78
2023-04-02T03:29:32.949Z,7.71
2023-04-02T03:32:29.544Z,7.81
2023-04-02T03:35:15.139Z,7.89
2023-04-02T03:37:48.401Z,7.85
2023-04-02T03:40:22.433Z,7.91
2023-04-02T03:42:51.886Z,7.88
2023-04-02T03:45:23.067Z,7.84
2023-04-02T03:47:53.489Z,7.72
2023-04-02T03:50:30.717Z,8.01
2023-04-02T03:52:58.730Z,7.97
2023-04-02T03:55:27.354Z,7.83
2023-04-02T03:58:17.173Z,7.95
2023-04-02T04:00:57.809Z,7.57
2023-04-02T04:03:37.338Z,7.70
2023-04-02T04:06:10.557Z,7.72
2023-04-02T04:08:46.936Z,7.81
2023-04-02T04:11:17.180Z,8.08
2023-04-02T04:13:51.200Z,8.14
2023-04-02T04:16:21.970Z,8.34
2023-04-02T04:18:56.058Z,8.42
2023-04-02T04:21:27.298Z,8.40
2023-04-02T04:23:53.820Z,8.27
2023-04-02T04:26:24.355Z,8.10
2023-04-02T04:28:59.864Z,8.16
2023-04-02T04:31:47.479Z,8.30
2023-04-02T04:34:20.332Z,8.23
2023-04-02T04:36:53.597Z,8.34
2023-04-02T04:39:41.754Z,8.22
2023-04-02T04:42:13.918Z,8.16
2023-04-02T04:44:45.291Z,8.01
2023-04-02T04:47:20.922Z,7.71
2023-04-02T04:49:52.583Z,7.53
2023-04-02T04:52:28.639Z,7.78
2023-04-02T04:54:55.302Z,7.92
2023-04-02T04:57:31.081Z,8.17
2023-04-02T05:00:04.094Z,8.31
2023-04-02T05:02:35.550Z,8.52
2023-04-02T05:05:02.746Z,8.65
2023-04-02T05:07:32.182Z,8.70
2023-04-02T05:10:13.217Z,8.80
2023-04-02T05:12:48.247Z,8.93
2023-04-02T05:15:41.552Z,8.91
2023-04-02T05:18:16.338Z,8.78
2023-04-02T05:20:51.379Z,8.71
2023-04-02T05:23:21.919Z,8.66
2023-04-02T05:26:13.443Z,8.81
2023-04-02T05:28:45.032Z,8.94
2023-04-02T05:31:20.399Z,9.08
2023-04-02T05:33:48.795Z,8.89
2023-04-02T05:36:27.450Z,8.97
2023-04-02T05:38:54.178Z,9.12
2023-04-02T05:41:26.662Z,9.17
2023-04-02T05:44:06.601Z,9.13
2023-04-02T05:46:54.707Z,9.15
2023-04-02T05:49:39.067Z,9.15
2023-04-02T05:52:07.985Z,9.08
2023-04-02T05:54:39.853Z,9.22
2023-04-02T05:57:13.259Z,9.11
2023-04-02T05:59:43.590Z,8.91
2023-04-02T06:02:23.079Z,8.85
2023-04-02T06:04:57.758Z,8.69
2023-04-02T06:07:29.642Z,8.78
2023-04-02T06:10:03.161Z,9.03
2023-04-02T06:12:53.399Z,9.29
2023-04-02T06:15:21.911Z,9.42
2023-04-02T06:17:53.343Z,9.59
2023-04-02T06:20:20.887Z,9.82
2023-04-02T06:22:50.091Z,10.07
2023-04-02T06:25:24.320Z,10.18
2023-04-02T06:27:51.838Z,10.32
2023-04-02T06:30:25.273Z,10.40
2023-04-02T06:32:51.888Z,10.50
2023-04-02T06:35:18.524Z,10.54
2023-04-02T06:37:48.154Z,10.67
2023-04-02T06:40:28.616Z,10.75
2023-04-02T06:42:56.485Z,10.83
2023-04-02T06:45:28.542Z,10.78
2023-04-02T06:47:57.411Z,10.87
2023-04-02T06:50:27.976Z,10.92
2023-04-02T06:53:00.161Z,10.96
2023-04-02T06:55:50.918Z,10.94
2023-04-02T06:58:17.967Z,11.11
2023-04-02T07:00:46.811Z,11.17
2023-04-02T07:03:28.109Z,11.32
2023-04-02T07:05:55.042Z,11.34
2023-04-02T07:08:21.945Z,11.14
2023-04-02T07:10:48.558Z,10.89
2023-04-02T07:13:24.831Z,11.12
2023-04-02T07:15:56.206Z,11.33
2023-04-02T07:18:28.995Z,11.45
2023-04-02T07:20:59.110Z,11.42
2023-04-02T07:23:26.203Z,11.42
2023-04-02T07:25:54.477Z,11.35
2023-04-02T07:28:22.900Z,11.39
2023-04-02T07:30:53.061Z,11.10
2023-04-02T07:33:27.233Z,11.29
2023-04-02T07:35:55.044Z,11.17
2023-04-02T07:38:21.613Z,11.06
2023-04-02T07:40:48.402Z,11.05
2023-04-02T07:43:16.496Z,10.85
2023-04-02T07:45:43.137Z,10.74
2023-04-02T07:48:11.618Z,10.40
2023-04-02T07:50:38.125Z,10.42
2023-04-02T07:53:05.028Z,10.70
2023-04-02T07:55:31.525Z,11.17
2023-04-02T07:57:59.147Z,11.65
2023-04-02T08:00:27.048Z,12.05
2023-04-02T08:02:53.923Z,12.46
2023-04-02T08:05:20.599Z,13.10
2023-04-02T08:07:54.876Z,13.44
2023-04-02T08:10:21.536Z,13.34
2023-04-02T08:12:48.099Z,13.46
2023-04-02T08:15:15.498Z,13.75
2023-04-02T08:17:42.721Z,13.65
2023-04-02T08:20:21.213Z,13.68
2023-04-02T08:22:48.712Z,13.81
2023-04-02T08:25:15.885Z,13.64
2023-04-02T08:27:42.501Z,13.67
2023-04-02T08:30:11.235Z,13.59
2023-04-02T08:32:37.856Z,13.69
2023-04-02T08:35:04.732Z,13.56
2023-04-02T08:37:31.246Z,13.62
2023-04-02T08:39:57.754Z,13.47
2023-04-02T08:42:41.362Z,13.43
2023-04-02T08:45:42.073Z,13.65
2023-04-02T08:48:10.624Z,13.90
2023-04-02T08:50:42.186Z,14.38
2023-04-02T08:53:20.134Z,14.22
2023-04-02T08:56:14.500Z,15.27
2023-04-02T08:58:49.083Z,15.90
2023-04-02T09:01:47.714Z,16.03
2023-04-02T09:04:21.274Z,16.28
2023-04-02T09:06:48.376Z,16.39
2023-04-02T09:09:15.688Z,16.33
2023-04-02T09:11:58.766Z,16.40
2023-04-02T09:14:43.519Z,16.13
2023-04-02T09:17:18.016Z,16.35
2023-04-02T09:19:52.532Z,15.84
2023-04-02T09:22:22.005Z,15.59
2023-04-02T09:24:59.629Z,15.35
2023-04-02T09:27:28.982Z,15.06
2023-04-02T09:29:58.326Z,14.95
2023-04-02T09:32:37.364Z,15.02
2023-04-02T09:35:22.446Z,14.38
2023-04-02T09:38:07.774Z,14.26
2023-04-02T09:41:03.375Z,13.86
2023-04-02T09:43:32.488Z,13.77
2023-04-02T09:46:20.811Z,13.65
2023-04-02T09:48:53.901Z,14.00
2023-04-02T09:51:24.540Z,14.11
2023-04-02T09:54:08.579Z,14.56
2023-04-02T09:56:36.826Z,14.70
2023-04-02T09:59:13.799Z,14.41
2023-04-02T10:01:42.504Z,14.51
2023-04-02T10:04:34.114Z,14.79
2023-04-02T10:07:00.660Z,14.93
2023-04-02T10:09:35.209Z,14.70
2023-04-02T10:12:03.499Z,15.03
2023-04-02T10:14:34.418Z,14.47
2023-04-02T10:17:21.143Z,15.18
2023-04-02T10:19:53.391Z,15.57
2023-04-02T10:22:21.768Z,15.46
2023-04-02T10:24:48.998Z,15.54
2023-04-02T10:27:38.605Z,15.23
2023-04-02T10:30:09.408Z,14.67
2023-04-02T10:33:01.681Z,14.88
2023-04-02T10:35:54.919Z,14.99
2023-04-02T10:38:29.845Z,15.06
2023-04-02T10:40:59.812Z,14.09
2023-04-02T10:43:41.629Z,14.03
2023-04-02T10:46:30.098Z,13.25
2023-04-02T10:49:08.970Z,13.35
2023-04-02T10:51:43.058Z,13.56
2023-04-02T10:54:33.168Z,13.70
2023-04-02T10:57:14.625Z,13.26
2023-04-02T10:59:52.093Z,13.38
2023-04-02T11:02:51.284Z,13.48
2023-04-02T11:05:23.033Z,13.58
2023-04-02T11:07:59.982Z,13.95
2023-04-02T11:10:30.126Z,14.06
2023-04-02T11:12:57.998Z,13.67
2023-04-02T11:15:28.804Z,13.53
2023-04-02T11:17:55.436Z,13.72
2023-04-02T11:20:49.892Z,13.85
2023-04-02T11:23:20.565Z,14.11
2023-04-02T11:25:47.790Z,14.41
2023-04-02T11:28:27.586Z,14.57
2023-04-02T11:30:54.820Z,14.44
2023-04-02T11:33:46.127Z,14.47
2023-04-02T11:36:50.750Z,14.63
2023-04-02T11:39:52.045Z,14.63
2023-04-02T11:42:18.571Z,14.37
2023-04-02T11:44:45.455Z,14.04
2023-04-02T11:47:18.757Z,13.28
2023-04-02T11:49:59.684Z,13.57
2023-04-02T11:52:27.724Z,13.44
2023-04-02T11:55:01.372Z,13.39
2023-04-02T11:58:05.609Z,13.26
2023-04-02T12:00:37.572Z,13.63
2023-04-02T12:03:25.842Z,13.51
2023-04-02T12:06:04.165Z,13.65
2023-04-02T12:08:50.836Z,13.82
2023-04-02T12:11:38.495Z,13.72
2023-04-02T12:14:30.589Z,13.44
2023-04-02T12:16:58.074Z,13.03
2023-04-02T12:19:25.034Z,12.66
2023-04-02T12:21:52.457Z,12.85
2023-04-02T12:24:23.907Z,13.06
2023-04-02T12:27:10.930Z,13.26
2023-04-02T12:29:37.467Z,13.12
2023-04-02T12:32:04.046Z,13.48
2023-04-02T12:34:30.790Z,13.58
2023-04-02T12:37:02.218Z,14.06
2023-04-02T12:39:32.748Z,14.12
2023-04-02T12:41:59.439Z,14.61
2023-04-02T12:44:28.191Z,15.08
2023-04-02T12:46:55.607Z,15.25
2023-04-02T12:49:41.487Z,15.50
2023-04-02T12:52:34.453Z,15.18
2023-04-02T12:55:02.634Z,14.80
2023-04-02T12:57:29.128Z,14.67
2023-04-02T13:00:01.756Z,14.61
2023-04-02T13:02:33.526Z,14.32
2023-04-02T13:05:01.712Z,14.07
2023-04-02T13:07:32.687Z,14.51
2023-04-02T13:10:22.645Z,14.56
2023-04-02T13:13:03.726Z,14.65
2023-04-02T13:15:32.617Z,14.92
2023-04-02T13:18:21.406Z,15.26
2023-04-02T13:21:01.748Z,15.50
2023-04-02T13:23:31.094Z,15.55
2023-04-02T13:25:58.729Z,15.19
2023-04-02T13:28:25.515Z,15.18
2023-04-02T13:30:52.122Z,14.92
2023-04-02T13:33:18.663Z,14.75
2023-04-02T13:35:45.247Z,14.70
2023-04-02T13:38:11.752Z,14.90
2023-04-02T13:40:38.407Z,14.64
2023-04-02T13:43:10.475Z,14.69
2023-04-02T13:45:38.476Z,14.72
2023-04-02T13:48:05.923Z,14.90
2023-04-02T13:50:34.754Z,15.02
2023-04-02T13:53:09.680Z,15.29
2023-04-02T13:55:40.426Z,15.11
2023-04-02T13:58:06.945Z,14.42
2023-04-02T14:00:35.578Z,14.79
2023-04-02T14:03:12.408Z,14.68
2023-04-02T14:05:48.079Z,14.67
2023-04-02T14:08:23.602Z,14.55
2023-04-02T14:10:53.851Z,14.74
2023-04-02T14:13:23.382Z,14.77
2023-04-02T14:16:11.205Z,14.63
2023-04-02T14:18:53.455Z,14.41
2023-04-02T14:21:26.067Z,14.46
2023-04-02T14:24:04.807Z,14.77
2023-04-02T14:26:53.050Z,14.78
2023-04-02T14:29:19.424Z,14.72
2023-04-02T14:32:02.972Z,14.51
2023-04-02T14:34:41.903Z,14.31
2023-04-02T14:37:33.790Z,14.33
2023-04-02T14:40:13.488Z,13.98
2023-04-02T14:42:50.981Z,13.72
2023-04-02T14:45:42.498Z,13.81
2023-04-02T14:48:46.348Z,13.76
2023-04-02T14:51:34.051Z,13.82
2023-04-02T14:54:19.360Z,13.92
2023-04-02T14:57:10.394Z,13.70
2023-04-02T14:59:49.253Z,13.89
2023-04-02T15:02:40.857Z,14.03
2023-04-02T15:05:42.764Z,13.78
2023-04-02T15:08:36.824Z,13.58
2023-04-02T15:11:34.046Z,13.19
2023-04-02T15:14:06.362Z,13.36
2023-04-02T15:16:33.478Z,13.40
2023-04-02T15:19:00.689Z,13.26
2023-04-02T15:21:59.020Z,13.22
2023-04-02T15:24:35.523Z,13.32
2023-04-02T15:27:48.415Z,13.25
2023-04-02T15:30:20.650Z,13.39
2023-04-02T15:32:50.273Z,13.48
2023-04-02T15:35:47.771Z,13.56
2023-04-02T15:38:31.666Z,13.57
2023-04-02T15:41:29.795Z,13.49
2023-04-02T15:44:25.836Z,13.45
2023-04-02T15:47:43.575Z,13.17
2023-04-02T15:50:44.096Z,12.97
2023-04-02T15:53:29.880Z,12.74
2023-04-02T15:56:08.725Z,12.68
2023-04-02T15:58:44.368Z,12.69
2023-04-02T16:01:39.775Z,12.75
2023-04-02T16:04:54.874Z,12.62
2023-04-02T16:07:47.513Z,12.61
2023-04-02T16:13:43.811Z,12.77
2023-04-02T16:16:25.089Z,12.69
2023-04-02T16:19:30.669Z,13.12
2023-04-02T16:23:11.789Z,13.11
2023-04-02T16:25:20.414Z,13.26
2023-04-02T16:28:24.833Z,13.37
2023-04-02T16:31:06.947Z,12.90
2023-04-02T16:33:43.706Z,12.86
2023-04-02T16:36:32.218Z,12.89
2023-04-02T16:39:03.981Z,12.82
2023-04-02T16:42:00.033Z,12.86
2023-04-02T16:44:34.929Z,12.92
2023-04-02T16:47:05.624Z,12.87
2023-04-02T16:49:47.299Z,12.87
2023-04-02T16:52:27.472Z,12.80
2023-04-02T16:54:53.856Z,12.85
2023-04-02T16:57:55.656Z,12.59
2023-04-02T17:00:32.508Z,12.42
2023-04-02T17:03:17.633Z,12.29
2023-04-02T17:05:55.709Z,12.23
2023-04-02T17:08:36.665Z,12.18
2023-04-02T17:11:15.019Z,12.16
2023-04-02T17:13:53.042Z,12.13
2023-04-02T17:16:37.245Z,12.01
2023-04-02T17:19:09.679Z,11.83
2023-04-02T17:21:36.513Z,11.34
2023-04-02T17:24:15.078Z,11.22
2023-04-02T17:26:42.020Z,11.16
2023-04-02T17:29:09.793Z,10.87
2023-04-02T17:31:37.251Z,10.76
2023-04-02T17:34:14.549Z,10.81
2023-04-02T17:36:46.910Z,10.86
2023-04-02T17:39:49.056Z,10.95
2023-04-02T17:42:35.935Z,10.76
2023-04-02T17:45:04.929Z,10.77
2023-04-02T17:47:46.552Z,10.75
2023-04-02T17:50:41.127Z,10.82
2023-04-02T17:53:11.667Z,11.07
2023-04-02T17:55:56.925Z,11.09
2023-04-02T17:58:43.755Z,11.31
2023-04-02T18:01:22.083Z,11.07
2023-04-02T18:03:48.510Z,10.91
2023-04-02T18:06:26.975Z,10.70
2023-04-02T18:09:14.509Z,10.53
2023-04-02T18:12:02.822Z,10.21
2023-04-02T18:14:48.084Z,10.13
2023-04-02T18:17:26.926Z,10.27
2023-04-02T18:20:27.864Z,10.51
2023-04-02T18:23:28.330Z,10.63
2023-04-02T18:26:17.028Z,10.35
2023-04-02T18:29:05.900Z,10.42
2023-04-02T18:31:58.742Z,10.37
2023-04-02T18:34:37.343Z,10.31
2023-04-02T18:37:19.960Z,10.40
2023-04-02T18:40:21.895Z,10.42
2023-04-02T18:42:54.546Z,10.45
2023-04-02T18:45:52.208Z,10.57
2023-04-02T18:48:39.446Z,10.50
2023-04-02T18:51:14.199Z,10.42
2023-04-02T18:53:41.101Z,10.30
2023-04-02T18:56:12.072Z,10.41
2023-04-02T18:58:47.822Z,10.49
2023-04-02T19:01:17.156Z,10.62
2023-04-02T19:03:51.529Z,10.70
2023-04-02T19:06:24.118Z,10.77
2023-04-02T19:08:59.735Z,10.74
2023-04-02T19:11:26.952Z,10.73
2023-04-02T19:13:53.432Z,10.81
2023-04-02T19:16:37.092Z,10.81
2023-04-02T19:19:30.524Z,10.85
2023-04-02T19:22:19.350Z,10.78
2023-04-02T19:25:02.869Z,10.73
2023-04-02T19:28:00.163Z,10.62
2023-04-02T19:30:38.443Z,10.53
2023-04-02T19:33:23.195Z,10.29
2023-04-02T19:36:14.463Z,10.22
2023-04-02T19:38:59.144Z,10.17
2023-04-02T19:41:34.924Z,10.09
2023-04-02T19:44:09.778Z,9.96
2023-04-02T19:46:38.050Z,9.56
2023-04-02T19:49:10.050Z,9.75
2023-04-02T19:51:36.534Z,9.88
2023-04-02T19:54:03.179Z,9.91
2023-04-02T19:56:29.790Z,9.87
2023-04-02T19:58:56.816Z,9.85
2023-04-02T20:01:24.849Z,10.00
2023-04-02T20:03:53.929Z,10.11
2023-04-02T20:06:20.475Z,10.11
2023-04-02T20:08:46.985Z,10.05
2023-04-02T20:11:13.494Z,10.02
2023-04-02T20:13:39.964Z,10.09
2023-04-02T20:16:06.558Z,10.10
2023-04-02T20:18:33.660Z,10.01
2023-04-02T20:21:04.775Z,10.17
2023-04-02T20:23:31.272Z,10.20
2023-04-02T20:25:57.800Z,10.20
2023-04-02T20:28:25.505Z,10.04
2023-04-02T20:30:52.652Z,9.92
2023-04-02T20:33:22.425Z,9.54
2023-04-02T20:35:50.058Z,9.19
2023-04-02T20:38:17.078Z,9.31
2023-04-02T20:40:44.194Z,9.56
2023-04-02T20:43:11.002Z,9.71
2023-04-02T20:45:37.797Z,9.84
2023-04-02T20:48:04.545Z,10.03
2023-04-02T20:50:31.242Z,10.14
2023-04-02T20:52:58.673Z,10.29
2023-04-02T20:55:25.289Z,10.24
2023-04-02T20:57:52.051Z,10.34
2023-04-02T21:00:18.846Z,10.32
2023-04-02T21:02:56.004Z,10.20
2023-04-02T21:05:22.625Z,10.14
2023-04-02T21:07:49.179Z,9.98
2023-04-02T21:10:17.227Z,9.95
2023-04-02T21:12:43.850Z,10.19
2023-04-02T21:15:10.500Z,10.25
2023-04-02T21:17:37.109Z,10.24
2023-04-02T21:20:03.889Z,10.21
2023-04-02T21:22:30.470Z,10.28
2023-04-02T21:24:57.373Z,10.33
2023-04-02T21:27:23.961Z,10.41
2023-04-02T21:29:53.147Z,10.35
2023-04-02T21:32:21.601Z,10.46
2023-04-02T21:34:51.287Z,10.49
2023-04-02T21:37:17.834Z,10.46
2023-04-02T21:39:44.356Z,10.39
2023-04-02T21:42:12.610Z,10.35
2023-04-02T21:44:39.236Z,9.97
2023-04-02T21:47:06.018Z,9.71
2023-04-02T21:49:32.706Z,9.38
2023-04-02T21:51:59.174Z,9.56
2023-04-02T21:54:25.670Z,9.62
2023-04-02T21:56:52.300Z,9.79
2023-04-02T21:59:19.344Z,9.94
2023-04-02T22:01:48.869Z,10.03
2023-04-02T22:04:23.580Z,10.21
2023-04-02T22:06:51.246Z,10.27
2023-04-02T22:09:26.716Z,10.28
2023-04-02T22:11:55.946Z,10.01
2023-04-02T22:14:22.895Z,10.14
2023-04-02T22:16:49.850Z,10.16
2023-04-02T22:19:16.636Z,10.02
2023-04-02T22:21:43.621Z,9.67
2023-04-02T22:24:14.198Z,9.64
2023-04-02T22:26:41.034Z,9.67
2023-04-02T22:29:10.805Z,9.35
2023-04-02T22:31:37.374Z,9.27
2023-04-02T22:34:04.840Z,9.44
2023-04-02T22:36:33.583Z,9.35
2023-04-02T22:39:01.056Z,9.22
2023-04-02T22:41:28.970Z,9.00
2023-04-02T22:43:56.505Z,8.78
2023-04-02T22:46:26.816Z,8.32
2023-04-02T22:48:53.762Z,8.15
2023-04-02T22:51:21.868Z,7.99
2023-04-02T22:53:49.013Z,8.15
2023-04-02T22:56:18.542Z,8.34
2023-04-02T22:58:45.380Z,8.70
2023-04-02T23:01:18.869Z,8.85
2023-04-02T23:03:45.442Z,8.93
2023-04-02T23:06:14.377Z,9.03
2023-04-02T23:08:41.546Z,9.04
2023-04-02T23:11:12.752Z,8.91
2023-04-02T23:13:40.553Z,9.19
2023-04-02T23:16:10.258Z,9.29
2023-04-02T23:18:38.356Z,9.23
2023-04-02T23:21:05.981Z,9.19
2023-04-02T23:23:35.847Z,9.26
2023-04-02T23:26:03.586Z,9.33
2023-04-02T23:28:30.238Z,9.46
2023-04-02T23:30:56.705Z,9.44
2023-04-02T23:33:23.187Z,9.46
2023-04-02T23:35:49.903Z,9.46
2023-04-02T23:38:16.415Z,9.10
2023-04-02T23:40:42.888Z,9.37
2023-04-02T23:43:09.436Z,9.48
2023-04-02T23:45:35.918Z,9.27
2023-04-02T23:48:02.448Z,9.17
2023-04-02T23:50:29.100Z,8.92
2023-04-02T23:52:55.749Z,8.93
2023-04-02T23:55:22.252Z,8.74
2023-04-02T23:57:48.722Z,8.71
